createdAt,value
2023-03-30T00:01:56.608Z,7.88
2023-03-30T00:04:27.311Z,7.50
2023-03-30T00:06:54.727Z,8.73
2023-03-30T00:09:22.872Z,9.48
2023-03-30T00:11:50.265Z,12.85
2023-03-30T00:14:18.378Z,14.75
2023-03-30T00:16:45.246Z,13.35
2023-03-30T00:19:12.254Z,9.95
2023-03-30T00:21:39.290Z,7.43
2023-03-30T00:24:06.358Z,6.50
2023-03-30T00:26:33.477Z,6.65
2023-03-30T00:29:00.260Z,8.07
2023-03-30T00:31:27.689Z,6.78
2023-03-30T00:33:54.542Z,6.28
2023-03-30T00:36:22.579Z,6.47
2023-03-30T00:38:49.526Z,6.50
2023-03-30T00:41:16.766Z,6.47
2023-03-30T00:44:04.854Z,6.90
2023-03-30T00:46:32.288Z,6.55
2023-03-30T00:49:08.845Z,5.32
2023-03-30T00:51:39.078Z,6.72
2023-03-30T00:54:16.837Z,7.35
2023-03-30T00:56:43.902Z,7.05
2023-03-30T00:59:11.289Z,7.97
2023-03-30T01:01:40.581Z,7.32
2023-03-30T01:04:09.922Z,7.85
2023-03-30T01:06:40.350Z,9.25
2023-03-30T01:09:08.742Z,8.27
2023-03-30T01:11:36.052Z,6.82
2023-03-30T01:14:10.126Z,6.10
2023-03-30T01:16:55.908Z,6.63
2023-03-30T01:19:44.810Z,5.78
2023-03-30T01:22:39.692Z,5.72
2023-03-30T01:25:45.438Z,6.22
2023-03-30T01:28:37.305Z,5.85
2023-03-30T01:31:25.796Z,7.20
2023-03-30T01:34:40.092Z,7.55
2023-03-30T01:37:15.958Z,6.25
2023-03-30T01:39:54.979Z,6.65
2023-03-30T01:42:39.930Z,6.28
2023-03-30T01:45:13.724Z,5.70
2023-03-30T01:47:59.246Z,5.85
2023-03-30T01:50:31.987Z,5.75
2023-03-30T01:53:10.410Z,6.07
2023-03-30T01:56:00.711Z,5.65
2023-03-30T01:58:36.155Z,8.35
2023-03-30T02:01:06.924Z,8.80
2023-03-30T02:03:38.984Z,9.73
2023-03-30T02:06:15.465Z,8.48
2023-03-30T02:08:44.895Z,8.25
2023-03-30T02:11:12.952Z,7.57
2023-03-30T02:13:42.453Z,7.25
2023-03-30T02:16:15.601Z,7.75
2023-03-30T02:18:45.678Z,7.55
2023-03-30T02:21:13.197Z,6.93
2023-03-30T02:23:45.401Z,6.50
2023-03-30T02:26:13.993Z,6.43
2023-03-30T02:28:40.978Z,6.43
2023-03-30T02:31:16.459Z,6.20
2023-03-30T02:34:02.738Z,7.03
2023-03-30T02:36:45.624Z,12.20
2023-03-30T02:39:50.747Z,11.65
2023-03-30T02:42:50.580Z,6.05
2023-03-30T02:45:43.053Z,5.70
2023-03-30T02:48:28.361Z,6.20
2023-03-30T02:51:39.126Z,5.75
2023-03-30T02:54:30.750Z,6.30
2023-03-30T02:57:34.248Z,6.40
2023-03-30T03:00:36.288Z,5.85
2023-03-30T03:03:12.833Z,6.15
2023-03-30T03:05:42.941Z,5.97
2023-03-30T03:08:14.884Z,6.13
2023-03-30T03:10:42.951Z,6.00
2023-03-30T03:13:11.029Z,6.60
2023-03-30T03:15:44.917Z,6.95
2023-03-30T03:20:41.216Z,7.30
2023-03-30T03:23:08.542Z,6.93
2023-03-30T03:25:48.645Z,7.10
2023-03-30T03:31:06.884Z,5.65
2023-03-30T03:33:34.853Z,5.93
2023-03-30T03:36:12.254Z,8.00
2023-03-30T03:39:01.158Z,8.60
2023-03-30T03:41:28.581Z,8.35
2023-03-30T03:43:55.640Z,8.90
2023-03-30T03:46:22.662Z,8.10
2023-03-30T03:48:49.791Z,8.80
2023-03-30T03:51:17.037Z,8.43
2023-03-30T03:53:44.072Z,8.00
2023-03-30T03:56:14.578Z,10.45
2023-03-30T03:58:41.606Z,11.95
2023-03-30T04:03:35.635Z,13.10
2023-03-30T04:06:02.860Z,12.40
2023-03-30T04:08:30.529Z,11.48
2023-03-30T04:11:08.284Z,12.13
2023-03-30T04:14:04.543Z,11.00
2023-03-30T04:16:57.889Z,18.58
2023-03-30T04:19:43.581Z,9.60
2023-03-30T04:22:26.322Z,9.35
2023-03-30T04:25:07.041Z,10.43
2023-03-30T04:28:05.194Z,7.68
2023-03-30T04:31:13.112Z,16.50
2023-03-30T04:33:52.273Z,15.68
2023-03-30T04:36:38.115Z,14.00
2023-03-30T04:39:37.546Z,11.00
2023-03-30T04:42:04.733Z,10.90
2023-03-30T04:44:43.072Z,13.52
2023-03-30T04:47:21.567Z,20.98
2023-03-30T04:50:16.087Z,21.55
2023-03-30T04:53:03.484Z,23.02
2023-03-30T04:55:30.217Z,32.33
2023-03-30T04:58:22.112Z,28.52
2023-03-30T05:01:07.519Z,34.83
2023-03-30T05:03:49.864Z,33.08
2023-03-30T05:06:28.010Z,29.55
2023-03-30T05:09:14.965Z,29.30
2023-03-30T05:12:04.976Z,25.13
2023-03-30T05:14:44.122Z,28.15
2023-03-30T05:17:33.855Z,19.67
2023-03-30T05:20:18.407Z,20.77
2023-03-30T05:23:03.498Z,19.13
2023-03-30T05:25:50.498Z,15.35
2023-03-30T05:28:36.108Z,19.00
2023-03-30T05:31:38.193Z,34.05
2023-03-30T05:34:31.460Z,27.40
2023-03-30T05:37:11.555Z,30.40
2023-03-30T05:39:43.624Z,35.60
2023-03-30T05:42:36.876Z,32.33
2023-03-30T05:45:30.214Z,32.60
2023-03-30T05:48:17.613Z,33.53
2023-03-30T05:51:08.400Z,31.20
2023-03-30T05:53:48.554Z,32.60
2023-03-30T05:56:37.402Z,34.53
2023-03-30T05:59:37.522Z,33.60
2023-03-30T06:02:17.893Z,32.28
2023-03-30T06:04:46.596Z,30.52
2023-03-30T06:07:13.910Z,35.53
2023-03-30T06:09:40.804Z,39.17
2023-03-30T06:12:17.053Z,33.92
2023-03-30T06:14:44.202Z,35.03
2023-03-30T06:17:31.824Z,31.35
2023-03-30T06:19:59.063Z,28.02
2023-03-30T06:22:28.019Z,20.85
2023-03-30T06:25:23.996Z,12.55
2023-03-30T06:27:52.374Z,13.18
2023-03-30T06:30:20.676Z,9.35
2023-03-30T06:32:51.857Z,7.82
2023-03-30T06:35:24.351Z,8.60
2023-03-30T06:37:52.933Z,9.68
2023-03-30T06:40:21.581Z,6.80
2023-03-30T06:42:51.706Z,5.75
2023-03-30T06:45:39.819Z,7.88
2023-03-30T06:48:07.452Z,10.27
2023-03-30T06:50:38.753Z,9.82
2023-03-30T06:53:23.323Z,10.77
2023-03-30T06:55:57.032Z,17.13
2023-03-30T06:58:26.250Z,16.75
2023-03-30T07:00:53.906Z,11.90
2023-03-30T07:03:45.572Z,7.75
2023-03-30T07:06:22.707Z,6.72
2023-03-30T07:08:49.862Z,7.25
2023-03-30T07:11:22.485Z,6.85
2023-03-30T07:13:51.185Z,8.55
2023-03-30T07:16:18.576Z,5.60
2023-03-30T07:18:47.044Z,5.68
2023-03-30T07:21:14.413Z,5.38
2023-03-30T07:23:43.432Z,4.38
2023-03-30T07:26:19.535Z,4.30
2023-03-30T07:28:58.494Z,3.63
2023-03-30T07:31:26.421Z,3.83
2023-03-30T07:33:54.949Z,3.38
2023-03-30T07:36:25.088Z,2.85
2023-03-30T07:38:52.803Z,2.80
2023-03-30T07:41:20.042Z,2.88
2023-03-30T07:43:52.389Z,2.28
2023-03-30T07:46:22.609Z,2.00
2023-03-30T07:48:52.994Z,1.80
2023-03-30T07:51:20.316Z,1.80
2023-03-30T07:54:06.814Z,1.90
2023-03-30T07:56:53.841Z,1.50
2023-03-30T07:59:23.745Z,3.00
2023-03-30T08:01:54.444Z,1.85
2023-03-30T08:04:56.672Z,1.80
2023-03-30T08:07:45.023Z,2.20
2023-03-30T08:10:18.143Z,1.75
2023-03-30T08:12:44.949Z,2.53
2023-03-30T08:15:12.216Z,2.10
2023-03-30T08:17:39.161Z,2.13
2023-03-30T08:20:10.995Z,2.30
2023-03-30T08:22:38.347Z,1.95
2023-03-30T08:25:05.762Z,2.92
2023-03-30T08:27:33.058Z,2.30
2023-03-30T08:30:00.376Z,2.05
2023-03-30T08:32:27.332Z,3.42
2023-03-30T08:34:55.275Z,2.00
2023-03-30T08:37:22.864Z,1.92
2023-03-30T08:39:49.711Z,1.95
2023-03-30T08:42:31.790Z,5.43
2023-03-30T08:45:05.507Z,3.22
2023-03-30T08:47:40.253Z,1.90
2023-03-30T08:50:36.884Z,2.28
2023-03-30T08:53:07.401Z,2.00
2023-03-30T08:55:47.466Z,1.70
2023-03-30T08:58:32.967Z,1.75
2023-03-30T09:01:29.392Z,1.80
2023-03-30T09:04:04.029Z,1.70
2023-03-30T09:06:49.193Z,2.40
2023-03-30T09:09:28.695Z,1.73
2023-03-30T09:12:06.099Z,1.70
2023-03-30T09:14:37.905Z,1.88
2023-03-30T09:17:15.381Z,1.75
2023-03-30T09:19:57.577Z,8.90
2023-03-30T09:22:41.034Z,2.83
2023-03-30T09:25:28.213Z,1.80
2023-03-30T09:28:01.051Z,1.85
2023-03-30T09:30:41.166Z,1.83
2023-03-30T09:33:30.936Z,1.80
2023-03-30T09:36:10.265Z,1.60
2023-03-30T09:38:41.869Z,2.10
2023-03-30T09:42:00.237Z,2.15
2023-03-30T09:44:33.789Z,2.97
2023-03-30T09:47:02.242Z,2.33
2023-03-30T09:49:38.308Z,2.00
2023-03-30T09:52:08.395Z,1.92
2023-03-30T09:54:40.903Z,1.65
2023-03-30T09:57:43.398Z,1.80
2023-03-30T10:00:31.394Z,3.83
2023-03-30T10:03:04.694Z,4.00
2023-03-30T10:05:34.135Z,1.77
2023-03-30T10:08:07.508Z,2.28
2023-03-30T10:10:36.784Z,4.35
2023-03-30T10:13:16.699Z,4.93
2023-03-30T10:15:48.484Z,2.10
2023-03-30T10:18:18.692Z,4.95
2023-03-30T10:20:53.691Z,2.50
2023-03-30T10:23:23.097Z,6.25
2023-03-30T10:25:52.365Z,7.45
2023-03-30T10:28:31.560Z,3.15
2023-03-30T10:31:03.153Z,3.65
2023-03-30T10:33:31.866Z,4.15
2023-03-30T10:36:03.589Z,1.85
2023-03-30T10:38:37.598Z,2.58
2023-03-30T10:41:17.214Z,2.15
2023-03-30T10:43:45.264Z,1.83
2023-03-30T10:46:20.091Z,2.28
2023-03-30T10:49:02.734Z,4.00
2023-03-30T10:51:36.168Z,11.30
2023-03-30T10:54:15.198Z,2.35
2023-03-30T10:56:49.600Z,1.60
2023-03-30T11:00:10.925Z,3.92
2023-03-30T11:02:59.586Z,1.67
2023-03-30T11:05:35.798Z,1.60
2023-03-30T11:08:26.048Z,2.20
2023-03-30T11:10:55.512Z,3.15
2023-03-30T11:13:29.324Z,2.00
2023-03-30T11:16:17.078Z,1.42
2023-03-30T11:18:57.641Z,1.63
2023-03-30T11:21:30.951Z,2.75
2023-03-30T11:24:04.799Z,2.00
2023-03-30T11:26:42.346Z,5.72
2023-03-30T11:29:48.146Z,2.88
2023-03-30T11:32:37.739Z,1.45
2023-03-30T11:35:30.287Z,1.27
2023-03-30T11:38:03.517Z,2.08
2023-03-30T11:40:44.281Z,3.92
2023-03-30T11:43:13.567Z,1.80
2023-03-30T11:46:16.176Z,2.25
2023-03-30T11:49:01.390Z,1.80
2023-03-30T11:51:34.182Z,2.38
2023-03-30T11:54:22.704Z,2.25
2023-03-30T11:57:13.346Z,1.90
2023-03-30T11:59:40.737Z,1.60
2023-03-30T12:02:26.521Z,1.73
2023-03-30T12:05:01.512Z,1.83
2023-03-30T12:07:52.584Z,1.70
2023-03-30T12:10:32.398Z,3.03
2023-03-30T12:13:00.744Z,1.85
2023-03-30T12:16:09.161Z,1.40
2023-03-30T12:19:06.653Z,3.58
2023-03-30T12:21:48.492Z,2.90
2023-03-30T12:24:29.583Z,1.60
2023-03-30T12:27:05.102Z,1.80
2023-03-30T12:32:26.349Z,1.60
2023-03-30T12:34:55.579Z,1.27
2023-03-30T12:37:28.584Z,1.23
2023-03-30T12:40:14.780Z,1.38
2023-03-30T12:42:55.792Z,3.22
2023-03-30T12:45:32.254Z,4.50
2023-03-30T12:48:17.069Z,1.80
2023-03-30T12:51:02.255Z,1.20
2023-03-30T12:53:41.749Z,1.38
2023-03-30T12:56:33.351Z,1.75
2023-03-30T13:01:46.330Z,1.50
2023-03-30T13:04:21.816Z,1.40
2023-03-30T13:06:57.283Z,1.50
2023-03-30T13:09:27.378Z,1.70
2023-03-30T13:11:54.409Z,2.95
2023-03-30T13:14:30.448Z,1.70
2023-03-30T13:17:00.148Z,1.23
2023-03-30T13:19:33.161Z,1.73
2023-03-30T13:22:03.580Z,2.78
2023-03-30T13:24:30.626Z,1.57
2023-03-30T13:27:19.489Z,3.17
2023-03-30T13:30:03.918Z,1.70
2023-03-30T13:32:40.118Z,3.47
2023-03-30T13:35:10.122Z,2.63
2023-03-30T13:37:55.814Z,2.78
2023-03-30T13:40:41.404Z,1.23
2023-03-30T13:43:34.072Z,1.33
2023-03-30T13:46:27.170Z,1.10
2023-03-30T13:49:03.065Z,1.92
2023-03-30T13:51:31.838Z,1.63
2023-03-30T13:54:03.762Z,1.02
2023-03-30T13:56:33.590Z,1.10
2023-03-30T13:59:17.093Z,2.95
2023-03-30T14:01:52.815Z,1.30
2023-03-30T14:04:20.645Z,1.10
2023-03-30T14:06:51.398Z,1.30
2023-03-30T14:09:25.035Z,1.08
2023-03-30T14:12:02.717Z,1.50
2023-03-30T14:14:30.101Z,1.30
2023-03-30T14:17:00.365Z,1.05
2023-03-30T14:20:11.519Z,1.13
2023-03-30T14:22:43.168Z,1.85
2023-03-30T14:25:24.285Z,1.70
2023-03-30T14:27:51.394Z,1.60
2023-03-30T14:30:29.733Z,1.10
2023-03-30T14:33:12.352Z,1.38
2023-03-30T14:35:46.768Z,1.40
2023-03-30T14:38:37.438Z,1.17
2023-03-30T14:41:25.095Z,2.55
2023-03-30T14:43:56.269Z,1.77
2023-03-30T14:46:32.625Z,1.85
2023-03-30T14:48:59.620Z,1.40
2023-03-30T14:51:37.964Z,1.65
2023-03-30T14:54:06.701Z,2.55
2023-03-30T14:56:34.131Z,3.20
2023-03-30T14:59:01.874Z,7.85
2023-03-30T15:01:33.445Z,1.40
2023-03-30T15:04:07.699Z,3.30
2023-03-30T15:06:36.948Z,1.35
2023-03-30T15:09:09.910Z,1.40
2023-03-30T15:11:39.848Z,1.73
2023-03-30T15:14:09.847Z,3.10
2023-03-30T15:16:37.900Z,2.20
2023-03-30T15:19:32.440Z,1.33
2023-03-30T15:22:03.471Z,1.45
2023-03-30T15:24:37.590Z,1.88
2023-03-30T15:27:07.772Z,1.38
2023-03-30T15:29:34.902Z,1.48
2023-03-30T15:32:11.596Z,3.97
2023-03-30T15:35:17.320Z,2.67
2023-03-30T15:37:56.391Z,1.90
2023-03-30T15:40:28.703Z,5.93
2023-03-30T15:43:11.531Z,3.10
2023-03-30T15:45:38.793Z,5.18
2023-03-30T15:48:11.820Z,8.30
2023-03-30T15:50:39.377Z,7.45
2023-03-30T15:53:13.855Z,9.43
2023-03-30T15:55:41.530Z,17.10
2023-03-30T15:58:13.841Z,23.25
2023-03-30T16:00:42.214Z,14.35
2023-03-30T16:03:13.031Z,9.60
2023-03-30T16:05:41.993Z,12.35
2023-03-30T16:08:08.769Z,6.90
2023-03-30T16:10:37.616Z,7.55
2023-03-30T16:13:07.221Z,12.18
2023-03-30T16:15:34.317Z,12.75
2023-03-30T16:18:01.230Z,18.08
2023-03-30T16:20:32.478Z,6.85
2023-03-30T16:23:04.635Z,6.57
2023-03-30T16:25:44.202Z,6.45
2023-03-30T16:28:17.503Z,8.73
2023-03-30T16:30:48.062Z,14.57
2023-03-30T16:33:15.429Z,16.17
2023-03-30T16:35:42.822Z,17.15
2023-03-30T16:38:16.418Z,19.63
2023-03-30T16:40:51.427Z,30.25
2023-03-30T16:43:18.461Z,23.42
2023-03-30T16:45:45.456Z,17.08
2023-03-30T16:48:15.171Z,12.60
2023-03-30T16:50:54.893Z,13.18
2023-03-30T16:53:22.039Z,13.82
2023-03-30T16:55:49.395Z,14.05
2023-03-30T16:58:17.364Z,15.43
2023-03-30T17:00:49.756Z,20.88
2023-03-30T17:03:18.204Z,18.02
2023-03-30T17:05:48.676Z,11.00
2023-03-30T17:08:27.802Z,12.35
2023-03-30T17:10:59.713Z,16.80
2023-03-30T17:13:27.804Z,24.83
2023-03-30T17:15:54.894Z,27.02
2023-03-30T17:18:24.135Z,38.95
2023-03-30T17:20:53.788Z,47.58
2023-03-30T17:23:23.484Z,41.35
2023-03-30T17:25:52.075Z,30.95
2023-03-30T17:28:28.362Z,29.52
2023-03-30T17:30:58.902Z,26.65
2023-03-30T17:33:26.447Z,28.07
2023-03-30T17:35:56.489Z,47.40
2023-03-30T17:38:24.220Z,42.67
2023-03-30T17:40:51.581Z,41.35
2023-03-30T17:43:18.844Z,33.60
2023-03-30T17:45:47.062Z,26.30
2023-03-30T17:48:17.712Z,47.15
2023-03-30T17:50:47.286Z,57.65
2023-03-30T17:53:39.404Z,44.67
2023-03-30T17:56:07.765Z,46.97
2023-03-30T17:58:36.441Z,46.60
2023-03-30T18:01:06.906Z,38.42
2023-03-30T18:03:35.307Z,44.72
2023-03-30T18:06:02.720Z,39.30
2023-03-30T18:08:29.627Z,56.20
2023-03-30T18:10:58.719Z,39.72
2023-03-30T18:13:27.686Z,27.75
2023-03-30T18:15:56.214Z,20.10
2023-03-30T18:18:26.353Z,15.85
2023-03-30T18:20:59.231Z,12.07
2023-03-30T18:23:26.226Z,13.75
2023-03-30T18:25:53.174Z,15.40
2023-03-30T18:28:25.505Z,33.00
2023-03-30T18:30:55.390Z,39.50
2023-03-30T18:33:27.852Z,36.78
2023-03-30T18:35:57.201Z,17.38
2023-03-30T18:38:25.258Z,15.05
2023-03-30T18:40:58.543Z,9.13
2023-03-30T18:43:28.758Z,7.25
2023-03-30T18:46:01.080Z,9.05
2023-03-30T18:48:29.086Z,8.77
2023-03-30T18:50:57.099Z,7.15
2023-03-30T18:53:27.245Z,9.65
2023-03-30T18:56:00.680Z,13.07
2023-03-30T18:58:31.469Z,11.55
2023-03-30T19:00:58.370Z,10.55
2023-03-30T19:03:28.073Z,8.02
2023-03-30T19:05:54.912Z,7.82
2023-03-30T19:08:24.119Z,8.65
2023-03-30T19:10:53.244Z,10.80
2023-03-30T19:13:21.526Z,9.45
2023-03-30T19:15:49.826Z,11.00
2023-03-30T19:18:18.003Z,14.68
2023-03-30T19:20:50.008Z,5.95
2023-03-30T19:23:31.011Z,5.72
2023-03-30T19:26:07.536Z,6.07
2023-03-30T19:28:34.766Z,5.50
2023-03-30T19:31:13.362Z,5.70
2023-03-30T19:33:40.696Z,6.72
2023-03-30T19:36:08.295Z,6.32
2023-03-30T19:38:35.914Z,6.25
2023-03-30T19:41:04.759Z,7.30
2023-03-30T19:43:31.966Z,6.95
2023-03-30T19:45:58.917Z,8.20
2023-03-30T19:48:27.682Z,8.77
2023-03-30T19:50:54.474Z,8.98
2023-03-30T19:53:21.800Z,15.50
2023-03-30T19:55:48.556Z,12.38
2023-03-30T19:58:15.502Z,17.20
2023-03-30T20:00:43.851Z,16.48
2023-03-30T20:03:12.588Z,19.50
2023-03-30T20:05:39.908Z,18.23
2023-03-30T20:08:17.272Z,14.70
2023-03-30T20:10:49.354Z,11.77
2023-03-30T20:13:17.225Z,14.88
2023-03-30T20:15:45.352Z,9.27
2023-03-30T20:18:12.275Z,4.75
2023-03-30T20:20:39.353Z,4.15
2023-03-30T20:23:06.347Z,4.20
2023-03-30T20:25:33.256Z,6.32
2023-03-30T20:28:00.239Z,6.93
2023-03-30T20:30:27.188Z,8.50
2023-03-30T20:33:06.809Z,8.38
2023-03-30T20:35:38.956Z,8.07
2023-03-30T20:38:08.319Z,8.25
2023-03-30T20:40:36.050Z,11.18
2023-03-30T20:43:03.686Z,11.85
2023-03-30T20:45:31.878Z,12.32
2023-03-30T20:47:59.842Z,14.82
2023-03-30T20:50:27.325Z,15.30
2023-03-30T20:52:54.133Z,12.77
2023-03-30T20:55:21.481Z,12.20
2023-03-30T20:57:48.552Z,7.93
2023-03-30T21:00:15.996Z,8.60
2023-03-30T21:02:46.788Z,9.25
2023-03-30T21:05:14.450Z,12.93
2023-03-30T21:07:42.369Z,24.50
2023-03-30T21:10:09.997Z,36.08
2023-03-30T21:12:36.878Z,20.67
2023-03-30T21:15:04.028Z,22.55
2023-03-30T21:17:31.063Z,19.75
2023-03-30T21:19:57.827Z,17.90
2023-03-30T21:22:25.235Z,11.15
2023-03-30T21:24:53.001Z,7.63
2023-03-30T21:27:19.774Z,8.52
2023-03-30T21:29:47.234Z,12.05
2023-03-30T21:32:14.188Z,10.38
2023-03-30T21:34:41.104Z,12.80
2023-03-30T21:37:09.105Z,9.10
2023-03-30T21:39:36.243Z,8.45
2023-03-30T21:42:05.231Z,8.77
2023-03-30T21:44:36.024Z,9.07
2023-03-30T21:47:03.239Z,8.27
2023-03-30T21:49:30.078Z,7.40
2023-03-30T21:51:57.050Z,7.65
2023-03-30T21:54:24.456Z,7.57
2023-03-30T21:56:51.343Z,7.20
2023-03-30T21:59:18.985Z,7.00
2023-03-30T22:01:46.091Z,6.72
2023-03-30T22:04:12.946Z,5.78
2023-03-30T22:06:39.783Z,5.70
2023-03-30T22:09:06.854Z,5.90
2023-03-30T22:11:33.776Z,5.93
2023-03-30T22:14:00.840Z,7.57
2023-03-30T22:16:31.613Z,7.30
2023-03-30T22:18:58.960Z,10.00
2023-03-30T22:21:34.606Z,10.45
2023-03-30T22:24:07.248Z,9.90
2023-03-30T22:26:35.978Z,8.88
2023-03-30T22:29:04.269Z,8.60
2023-03-30T22:31:31.236Z,7.65
2023-03-30T22:33:58.258Z,9.25
2023-03-30T22:36:30.004Z,9.60
2023-03-30T22:38:59.121Z,7.82
2023-03-30T22:41:36.440Z,6.90
2023-03-30T22:44:03.948Z,9.65
2023-03-30T22:46:37.203Z,8.63
2023-03-30T22:49:08.973Z,8.98
2023-03-30T22:51:39.118Z,10.40
2023-03-30T22:54:06.434Z,8.73
2023-03-30T22:56:33.396Z,8.13
2023-03-30T22:59:01.343Z,6.75
2023-03-30T23:01:32.089Z,6.38
2023-03-30T23:03:59.997Z,5.80
2023-03-30T23:06:27.203Z,19.45
2023-03-30T23:08:54.618Z,21.35
2023-03-30T23:11:21.696Z,12.45
2023-03-30T23:13:49.566Z,7.90
2023-03-30T23:16:16.530Z,8.05
2023-03-30T23:18:43.348Z,7.25
2023-03-30T23:21:11.176Z,5.90
2023-03-30T23:23:38.531Z,5.82
2023-03-30T23:26:09.722Z,6.90
2023-03-30T23:28:39.532Z,7.13
2023-03-30T23:31:12.264Z,6.30
2023-03-30T23:33:41.103Z,5.82
2023-03-30T23:36:09.065Z,5.68
2023-03-30T23:38:37.592Z,6.25
2023-03-30T23:41:06.423Z,6.43
2023-03-30T23:43:33.249Z,14.68
2023-03-30T23:46:00.213Z,8.43
2023-03-30T23:48:27.117Z,7.60
2023-03-30T23:50:54.066Z,6.55
2023-03-30T23:53:21.050Z,7.40
2023-03-30T23:55:50.069Z,7.90
2023-03-30T23:58:18.314Z,8.00
